OJAI/AMM METAR and TAF weather

Enter ICAO airport designator
Station Type Date Time Source
OJAI METAR 2019/08/20 10:00 UTC NOAA

OJAI 201000Z 27010KT 7000 NSC 30/07 Q1014 NOSIG


Station Type Date Time Source
OJAI Decoded METAR 2019/08/20 10:00 UTC NOAA

Queen Alia Airport, Jordan (OJAI) 31-40N 035-58E
Aug 20, 2019 - 06:00 AM EDT / 2019.08.20 1000 UTC
Wind: from the W (270 degrees) at 12 MPH (10 KT):0
Visibility: 4 mile(s):0
Temperature: 86 F (30 C)
Dew Point: 44 F (7 C)
Relative Humidity: 23%
Pressure (altimeter): 29.94 in. Hg (1014 hPa)
ob: OJAI 201000Z 27010KT 7000 NSC 30/07 Q1014 NOSIG
cycle: 10

Station Type Date Time Source
OJAI TAF 2019/08/20 06:15 UTC NOAA

TAF TAF OJAI 200502Z 2006/2112 VRB02KT 8000 NSC
BECMG 2007/2010 28010KT 5000 HZ FEW035

Example: see airport list